OOCL California — VRWC8 — position and weather

sailwx.info

Track history (hours):
 
Tides and Currents Weather Stations Pressure Air Temp Water Temp Dewpoint Dewpoint Depression Visibility Wind Speed Wind Dir Waves Ship Positions

OOCL California

Last reported at 2014-Nov-24 04:33 UTC. Time now 2014-Nov-24 20:16 UTC.
Position S 33°58' E 151°13'.

Length 276 m; beam 40 m; draft 14 m.

Type: Cargo ship. MMSI: 477704000.

Date/timePositionNaut miles runAvg speedWind from/ knotsBaromVisibWave heightAir tempDewpointWater temp
2014-Nov-24 04:33S 33°58' E 151°13'0 0.0
2014-Nov-23 13:28S 33°58' E 151°13'0 0.0
2014-Nov-23 04:25S 33°58' E 151°13'0 0.1
2014-Nov-23 02:32S 33°58' E 151°13'3 3.1
2014-Nov-23 01:33S 34°01' E 151°15'47 9.3
2014-Nov-22 20:30S 33°26' E 151°53'1511.5
2014-Nov-22 19:13S 33°14' E 152°03'1111.6
2014-Nov-22 18:15S 33°05' E 152°12'811.7
2014-Nov-22 17:33S 32°59' E 152°18'1211.9
2014-Nov-22 16:33S 32°49' E 152°27'1211.9
2014-Nov-22 15:33S 32°40' E 152°36'1312.0
2014-Nov-22 14:30S 32°30' E 152°44'1111.8
2014-Nov-22 13:33S 32°19' E 152°49'1412.0
2014-Nov-22 12:21S 32°06' E 152°55'1113.2
2014-Nov-22 11:33S 31°56' E 152°59'1413.8
2014-Nov-22 10:33S 31°43' E 153°04'22414.0
2014-Nov-21 18:33S 28°03' E 153°50'1414.1
2014-Nov-21 17:33S 27°49' E 153°50'1414.4
2014-Nov-21 16:33S 27°34' E 153°51'2114.4
2014-Nov-21 15:05S 27°13' E 153°52'815.0
2014-Nov-21 14:33S 27°05' E 153°52'1715.6
2014-Nov-21 13:29S 26°48' E 153°53'1515.8
2014-Nov-21 12:34S 26°34' E 153°53'2015.9
2014-Nov-21 11:19S 26°14' E 153°54'1215.6
2014-Nov-21 10:34S 26°02' E 153°55'1514.9
2014-Nov-21 09:33S 25°47' E 153°55'1614.6
2014-Nov-21 08:27S 25°31' E 153°56'1614.5
2014-Nov-21 07:20S 25°15' E 153°56'11716.0
2014-Nov-21 00:00S 23°18' E 154°00'35114.6 090 / 141012.410.8 28.023.729.0
2014-Nov-20 00:00S 17°30' E 153°12'31713.2 100 / 141010.510.8 27.022.629.0
2014-Nov-19 00:00S 12°18' E 152°12'   140 / 141009.5 5.4 28.025.230.0
2014-Nov-16 06:00N 00°36' E 140°18'12420.6 1002.010.8 30.023.530.0
2014-Nov-16 00:00N 01°54' E 138°42'35719.8 130 / 41006.010.8 30.524.932.0
2014-Nov-15 06:00N 05°48' E 134°12'11419.0 010 / 251003.310.8 28.523.530.0
2014-Nov-15 00:00N 07°12' E 132°54'   110 / 91007.010.8 29.024.030.0
Track history (hours):
 
Tides and Currents Weather Stations Pressure Air Temp Water Temp Dewpoint Dewpoint Depression Visibility Wind Speed Wind Dir Waves Ship Positions

OOCL California

Last reported at 2014-Nov-24 04:33 UTC. Time now 2014-Nov-24 20:16 UTC.
Position S 33°58' E 151°13'.

Length 276 m; beam 40 m; draft 14 m.

Type: Cargo ship. MMSI: 477704000.

Date/timePositionNaut miles runAvg speedWind from/ knotsBaromVisibWave heightAir tempDewpointWater temp
2014-Nov-24 04:33S 33°58' E 151°13'0 0.0
2014-Nov-23 13:28S 33°58' E 151°13'0 0.0
2014-Nov-23 04:25S 33°58' E 151°13'0 0.1
2014-Nov-23 02:32S 33°58' E 151°13'3 3.1
2014-Nov-23 01:33S 34°01' E 151°15'47 9.3
2014-Nov-22 20:30S 33°26' E 151°53'1511.5
2014-Nov-22 19:13S 33°14' E 152°03'1111.6
2014-Nov-22 18:15S 33°05' E 152°12'811.7
2014-Nov-22 17:33S 32°59' E 152°18'1211.9
2014-Nov-22 16:33S 32°49' E 152°27'1211.9
2014-Nov-22 15:33S 32°40' E 152°36'1312.0
2014-Nov-22 14:30S 32°30' E 152°44'1111.8
2014-Nov-22 13:33S 32°19' E 152°49'1412.0
2014-Nov-22 12:21S 32°06' E 152°55'1113.2
2014-Nov-22 11:33S 31°56' E 152°59'1413.8
2014-Nov-22 10:33S 31°43' E 153°04'22414.0
2014-Nov-21 18:33S 28°03' E 153°50'1414.1
2014-Nov-21 17:33S 27°49' E 153°50'1414.4
2014-Nov-21 16:33S 27°34' E 153°51'2114.4
2014-Nov-21 15:05S 27°13' E 153°52'815.0
2014-Nov-21 14:33S 27°05' E 153°52'1715.6
2014-Nov-21 13:29S 26°48' E 153°53'1515.8
2014-Nov-21 12:34S 26°34' E 153°53'2015.9
2014-Nov-21 11:19S 26°14' E 153°54'1215.6
2014-Nov-21 10:34S 26°02' E 153°55'1514.9
2014-Nov-21 09:33S 25°47' E 153°55'1614.6
2014-Nov-21 08:27S 25°31' E 153°56'1614.5
2014-Nov-21 07:20S 25°15' E 153°56'11716.0
2014-Nov-21 00:00S 23°18' E 154°00'35114.6 090 / 141012.410.8 28.023.729.0
2014-Nov-20 00:00S 17°30' E 153°12'31713.2 100 / 141010.510.8 27.022.629.0
2014-Nov-19 00:00S 12°18' E 152°12'   140 / 141009.5 5.4 28.025.230.0
2014-Nov-16 06:00N 00°36' E 140°18'12420.6 1002.010.8 30.023.530.0
2014-Nov-16 00:00N 01°54' E 138°42'35719.8 130 / 41006.010.8 30.524.932.0
2014-Nov-15 06:00N 05°48' E 134°12'11419.0 010 / 251003.310.8 28.523.530.0
2014-Nov-15 00:00N 07°12' E 132°54'   110 / 91007.010.8 29.024.030.0

Dump ship's entire track history